sensor_id;sensor_type;location;lat;lon;timestamp;P1;durP1;ratioP1;P2;durP2;ratioP2
7557;SDS011;3820;51.098;13.716;2023-02-24T00:01:13;135.03;;;59.17;;
7557;SDS011;3820;51.098;13.716;2023-02-24T00:03:44;161.27;;;65.03;;
7557;SDS011;3820;51.098;13.716;2023-02-24T00:06:10;138.30;;;60.93;;
7557;SDS011;3820;51.098;13.716;2023-02-24T00:08:38;137.67;;;62.20;;
7557;SDS011;3820;51.098;13.716;2023-02-24T00:11:11;121.80;;;57.83;;
7557;SDS011;3820;51.098;13.716;2023-02-24T00:13:40;129.90;;;58.07;;
7557;SDS011;3820;51.098;13.716;2023-02-24T00:16:15;139.67;;;59.40;;
7557;SDS011;3820;51.098;13.716;2023-02-24T00:18:43;123.57;;;56.37;;
7557;SDS011;3820;51.098;13.716;2023-02-24T00:21:11;121.60;;;56.47;;
7557;SDS011;3820;51.098;13.716;2023-02-24T00:23:41;124.13;;;57.33;;
7557;SDS011;3820;51.098;13.716;2023-02-24T00:26:14;134.10;;;57.87;;
7557;SDS011;3820;51.098;13.716;2023-02-24T00:28:42;126.87;;;59.20;;
7557;SDS011;3820;51.098;13.716;2023-02-24T00:31:11;128.60;;;58.70;;
7557;SDS011;3820;51.098;13.716;2023-02-24T00:33:42;126.33;;;58.67;;
7557;SDS011;3820;51.098;13.716;2023-02-24T00:36:14;132.93;;;61.90;;
7557;SDS011;3820;51.098;13.716;2023-02-24T00:38:53;151.83;;;67.70;;
7557;SDS011;3820;51.098;13.716;2023-02-24T00:41:26;159.93;;;68.07;;
7557;SDS011;3820;51.098;13.716;2023-02-24T00:43:58;156.90;;;68.03;;
7557;SDS011;3820;51.098;13.716;2023-02-24T00:46:41;162.83;;;69.27;;
7557;SDS011;3820;51.098;13.716;2023-02-24T00:49:11;162.37;;;66.77;;
7557;SDS011;3820;51.098;13.716;2023-02-24T00:51:46;148.13;;;65.37;;
7557;SDS011;3820;51.098;13.716;2023-02-24T00:54:14;163.20;;;67.00;;
7557;SDS011;3820;51.098;13.716;2023-02-24T00:56:42;157.50;;;66.73;;
7557;SDS011;3820;51.098;13.716;2023-02-24T00:59:11;140.90;;;62.70;;
7557;SDS011;3820;51.098;13.716;2023-02-24T01:01:40;148.23;;;64.27;;
7557;SDS011;3820;51.098;13.716;2023-02-24T01:04:08;155.73;;;64.90;;
7557;SDS011;3820;51.098;13.716;2023-02-24T01:06:39;128.03;;;59.57;;
7557;SDS011;3820;51.098;13.716;2023-02-24T01:09:11;128.63;;;59.73;;
7557;SDS011;3820;51.098;13.716;2023-02-24T01:11:41;131.53;;;58.87;;
7557;SDS011;3820;51.098;13.716;2023-02-24T01:14:48;128.23;;;58.07;;
7557;SDS011;3820;51.098;13.716;2023-02-24T01:17:17;121.20;;;56.33;;
7557;SDS011;3820;51.098;13.716;2023-02-24T01:19:44;135.03;;;57.93;;
7557;SDS011;3820;51.098;13.716;2023-02-24T01:22:13;136.57;;;57.80;;
7557;SDS011;3820;51.098;13.716;2023-02-24T01:24:40;135.73;;;59.57;;
7557;SDS011;3820;51.098;13.716;2023-02-24T01:27:09;149.87;;;60.63;;
7557;SDS011;3820;51.098;13.716;2023-02-24T01:29:37;136.33;;;59.73;;
7557;SDS011;3820;51.098;13.716;2023-02-24T01:32:12;121.93;;;54.67;;
7557;SDS011;3820;51.098;13.716;2023-02-24T01:34:42;128.27;;;54.97;;
7557;SDS011;3820;51.098;13.716;2023-02-24T01:37:09;109.77;;;51.70;;
7557;SDS011;3820;51.098;13.716;2023-02-24T01:39:35;119.07;;;52.83;;
7557;SDS011;3820;51.098;13.716;2023-02-24T01:42:02;109.97;;;50.80;;
7557;SDS011;3820;51.098;13.716;2023-02-24T01:46:58;111.80;;;48.90;;
7557;SDS011;3820;51.098;13.716;2023-02-24T01:52:04;103.80;;;48.03;;
7557;SDS011;3820;51.098;13.716;2023-02-24T01:57:17;112.83;;;48.93;;
7557;SDS011;3820;51.098;13.716;2023-02-24T01:59:45;108.33;;;48.07;;
7557;SDS011;3820;51.098;13.716;2023-02-24T02:02:13;108.80;;;47.53;;
7557;SDS011;3820;51.098;13.716;2023-02-24T02:07:21;87.30;;;43.27;;
7557;SDS011;3820;51.098;13.716;2023-02-24T02:09:49;85.07;;;41.90;;
7557;SDS011;3820;51.098;13.716;2023-02-24T02:12:16;91.70;;;42.20;;
7557;SDS011;3820;51.098;13.716;2023-02-24T02:14:45;78.87;;;39.53;;
7557;SDS011;3820;51.098;13.716;2023-02-24T02:26:28;75.23;;;37.70;;
7557;SDS011;3820;51.098;13.716;2023-02-24T02:34:13;69.97;;;35.57;;
7557;SDS011;3820;51.098;13.716;2023-02-24T02:39:55;74.67;;;35.33;;
7557;SDS011;3820;51.098;13.716;2023-02-24T02:42:49;68.83;;;33.83;;
7557;SDS011;3820;51.098;13.716;2023-02-24T02:48:06;64.10;;;32.83;;
7557;SDS011;3820;51.098;13.716;2023-02-24T02:50:39;66.27;;;33.20;;
7557;SDS011;3820;51.098;13.716;2023-02-24T02:53:13;63.60;;;32.87;;
7557;SDS011;3820;51.098;13.716;2023-02-24T02:58:20;65.70;;;32.67;;
7557;SDS011;3820;51.098;13.716;2023-02-24T03:00:52;53.40;;;27.87;;
7557;SDS011;3820;51.098;13.716;2023-02-24T03:03:29;51.30;;;24.97;;
7557;SDS011;3820;51.098;13.716;2023-02-24T03:05:59;41.37;;;22.47;;
7557;SDS011;3820;51.098;13.716;2023-02-24T03:08:29;42.90;;;21.83;;
7557;SDS011;3820;51.098;13.716;2023-02-24T03:10:59;38.80;;;20.80;;
7557;SDS011;3820;51.098;13.716;2023-02-24T03:13:28;43.43;;;20.83;;
7557;SDS011;3820;51.098;13.716;2023-02-24T03:18:35;39.97;;;20.80;;
7557;SDS011;3820;51.098;13.716;2023-02-24T03:21:08;42.13;;;20.97;;
7557;SDS011;3820;51.098;13.716;2023-02-24T03:23:43;43.63;;;21.23;;
7557;SDS011;3820;51.098;13.716;2023-02-24T03:26:32;46.40;;;21.57;;
7557;SDS011;3820;51.098;13.716;2023-02-24T03:29:14;39.13;;;19.70;;
7557;SDS011;3820;51.098;13.716;2023-02-24T03:31:48;52.97;;;22.10;;
7557;SDS011;3820;51.098;13.716;2023-02-24T03:36:49;52.80;;;21.10;;
7557;SDS011;3820;51.098;13.716;2023-02-24T03:39:15;49.03;;;22.13;;
7557;SDS011;3820;51.098;13.716;2023-02-24T03:41:52;54.63;;;22.13;;
7557;SDS011;3820;51.098;13.716;2023-02-24T03:44:23;52.57;;;22.33;;
7557;SDS011;3820;51.098;13.716;2023-02-24T03:46:52;61.93;;;22.97;;
7557;SDS011;3820;51.098;13.716;2023-02-24T03:49:21;54.10;;;21.67;;
7557;SDS011;3820;51.098;13.716;2023-02-24T03:51:55;54.33;;;20.83;;
7557;SDS011;3820;51.098;13.716;2023-02-24T03:57:37;61.83;;;20.97;;
7557;SDS011;3820;51.098;13.716;2023-02-24T04:00:23;39.53;;;16.67;;
7557;SDS011;3820;51.098;13.716;2023-02-24T04:03:05;44.90;;;16.67;;
7557;SDS011;3820;51.098;13.716;2023-02-24T04:05:41;48.10;;;17.50;;
7557;SDS011;3820;51.098;13.716;2023-02-24T04:08:13;49.20;;;17.70;;
7557;SDS011;3820;51.098;13.716;2023-02-24T04:16:26;54.33;;;19.50;;
7557;SDS011;3820;51.098;13.716;2023-02-24T04:18:56;47.97;;;19.03;;
7557;SDS011;3820;51.098;13.716;2023-02-24T04:21:26;49.27;;;18.70;;
7557;SDS011;3820;51.098;13.716;2023-02-24T04:23:53;42.13;;;18.20;;
7557;SDS011;3820;51.098;13.716;2023-02-24T04:26:21;53.07;;;19.37;;
7557;SDS011;3820;51.098;13.716;2023-02-24T04:28:50;50.20;;;20.03;;
7557;SDS011;3820;51.098;13.716;2023-02-24T04:31:17;48.90;;;20.10;;
7557;SDS011;3820;51.098;13.716;2023-02-24T04:33:46;45.77;;;19.73;;
7557;SDS011;3820;51.098;13.716;2023-02-24T04:36:20;59.60;;;21.37;;
7557;SDS011;3820;51.098;13.716;2023-02-24T04:38:47;58.93;;;22.67;;
7557;SDS011;3820;51.098;13.716;2023-02-24T04:41:14;54.63;;;22.17;;
7557;SDS011;3820;51.098;13.716;2023-02-24T04:43:47;65.97;;;22.63;;
7557;SDS011;3820;51.098;13.716;2023-02-24T04:46:16;68.13;;;23.47;;
7557;SDS011;3820;51.098;13.716;2023-02-24T04:48:44;59.40;;;22.80;;
7557;SDS011;3820;51.098;13.716;2023-02-24T04:51:11;59.40;;;22.53;;
7557;SDS011;3820;51.098;13.716;2023-02-24T04:53:39;70.20;;;24.27;;
7557;SDS011;3820;51.098;13.716;2023-02-24T04:56:06;60.33;;;23.60;;
7557;SDS011;3820;51.098;13.716;2023-02-24T04:58:35;63.83;;;23.43;;
7557;SDS011;3820;51.098;13.716;2023-02-24T05:01:09;64.93;;;22.63;;
7557;SDS011;3820;51.098;13.716;2023-02-24T05:03:36;66.70;;;23.87;;
7557;SDS011;3820;51.098;13.716;2023-02-24T05:06:03;60.07;;;23.30;;
7557;SDS011;3820;51.098;13.716;2023-02-24T05:08:31;61.97;;;22.20;;
7557;SDS011;3820;51.098;13.716;2023-02-24T05:10:58;61.80;;;23.80;;
7557;SDS011;3820;51.098;13.716;2023-02-24T05:13:30;74.77;;;24.40;;
7557;SDS011;3820;51.098;13.716;2023-02-24T05:15:58;374.83;;;130.97;;
7557;SDS011;3820;51.098;13.716;2023-02-24T05:18:29;76.20;;;28.27;;
7557;SDS011;3820;51.098;13.716;2023-02-24T05:21:06;73.87;;;25.43;;
7557;SDS011;3820;51.098;13.716;2023-02-24T05:23:53;51.33;;;21.07;;
7557;SDS011;3820;51.098;13.716;2023-02-24T05:26:20;42.93;;;18.00;;
7557;SDS011;3820;51.098;13.716;2023-02-24T05:28:51;43.40;;;18.47;;
7557;SDS011;3820;51.098;13.716;2023-02-24T05:31:23;31.97;;;13.47;;
7557;SDS011;3820;51.098;13.716;2023-02-24T05:33:53;29.63;;;13.37;;
7557;SDS011;3820;51.098;13.716;2023-02-24T05:36:23;32.53;;;14.27;;
7557;SDS011;3820;51.098;13.716;2023-02-24T05:38:52;33.30;;;13.57;;
7557;SDS011;3820;51.098;13.716;2023-02-24T05:41:23;36.27;;;13.73;;
7557;SDS011;3820;51.098;13.716;2023-02-24T05:43:58;36.67;;;14.20;;
7557;SDS011;3820;51.098;13.716;2023-02-24T05:46:28;31.87;;;13.47;;
7557;SDS011;3820;51.098;13.716;2023-02-24T05:49:02;34.47;;;13.90;;
7557;SDS011;3820;51.098;13.716;2023-02-24T05:51:34;30.80;;;12.20;;
7557;SDS011;3820;51.098;13.716;2023-02-24T05:54:11;29.33;;;11.83;;
7557;SDS011;3820;51.098;13.716;2023-02-24T05:56:39;30.37;;;12.47;;
7557;SDS011;3820;51.098;13.716;2023-02-24T05:59:10;34.37;;;13.27;;
7557;SDS011;3820;51.098;13.716;2023-02-24T06:01:38;34.53;;;12.20;;
7557;SDS011;3820;51.098;13.716;2023-02-24T06:04:11;21.53;;;9.03;;
7557;SDS011;3820;51.098;13.716;2023-02-24T06:06:46;19.47;;;7.20;;
7557;SDS011;3820;51.098;13.716;2023-02-24T06:09:18;14.53;;;6.40;;
7557;SDS011;3820;51.098;13.716;2023-02-24T06:11:48;14.80;;;6.37;;
7557;SDS011;3820;51.098;13.716;2023-02-24T06:14:15;16.30;;;6.37;;
7557;SDS011;3820;51.098;13.716;2023-02-24T06:16:42;13.00;;;5.83;;
7557;SDS011;3820;51.098;13.716;2023-02-24T06:19:09;13.50;;;5.73;;
7557;SDS011;3820;51.098;13.716;2023-02-24T06:21:38;14.23;;;5.70;;
7557;SDS011;3820;51.098;13.716;2023-02-24T06:24:09;15.77;;;5.37;;
7557;SDS011;3820;51.098;13.716;2023-02-24T06:26:43;20.50;;;5.27;;
7557;SDS011;3820;51.098;13.716;2023-02-24T06:29:11;16.13;;;4.83;;
7557;SDS011;3820;51.098;13.716;2023-02-24T06:31:40;14.13;;;4.40;;
7557;SDS011;3820;51.098;13.716;2023-02-24T06:34:08;14.50;;;4.47;;
7557;SDS011;3820;51.098;13.716;2023-02-24T06:36:39;18.73;;;5.03;;
7557;SDS011;3820;51.098;13.716;2023-02-24T06:39:06;17.57;;;5.13;;
7557;SDS011;3820;51.098;13.716;2023-02-24T06:41:34;20.37;;;4.87;;
7557;SDS011;3820;51.098;13.716;2023-02-24T06:44:00;21.07;;;4.83;;
7557;SDS011;3820;51.098;13.716;2023-02-24T06:46:27;24.03;;;5.23;;
7557;SDS011;3820;51.098;13.716;2023-02-24T06:48:54;21.10;;;6.53;;
7557;SDS011;3820;51.098;13.716;2023-02-24T06:51:21;18.67;;;5.43;;
7557;SDS011;3820;51.098;13.716;2023-02-24T06:53:49;19.90;;;5.60;;
7557;SDS011;3820;51.098;13.716;2023-02-24T06:56:17;27.33;;;6.23;;
7557;SDS011;3820;51.098;13.716;2023-02-24T06:58:51;24.00;;;5.23;;
7557;SDS011;3820;51.098;13.716;2023-02-24T07:01:22;17.43;;;5.30;;
7557;SDS011;3820;51.098;13.716;2023-02-24T07:03:55;16.77;;;4.50;;
7557;SDS011;3820;51.098;13.716;2023-02-24T07:06:44;17.07;;;4.00;;
7557;SDS011;3820;51.098;13.716;2023-02-24T07:09:21;22.80;;;5.10;;
7557;SDS011;3820;51.098;13.716;2023-02-24T07:11:50;21.53;;;5.00;;
7557;SDS011;3820;51.098;13.716;2023-02-24T07:14:19;16.70;;;4.50;;
7557;SDS011;3820;51.098;13.716;2023-02-24T07:16:47;19.93;;;5.33;;
7557;SDS011;3820;51.098;13.716;2023-02-24T07:19:20;21.67;;;5.23;;
7557;SDS011;3820;51.098;13.716;2023-02-24T07:21:49;18.23;;;5.00;;
7557;SDS011;3820;51.098;13.716;2023-02-24T07:24:19;26.07;;;5.00;;
7557;SDS011;3820;51.098;13.716;2023-02-24T07:26:59;22.87;;;4.37;;
7557;SDS011;3820;51.098;13.716;2023-02-24T07:29:28;25.00;;;4.83;;
7557;SDS011;3820;51.098;13.716;2023-02-24T07:32:02;17.93;;;5.20;;
7557;SDS011;3820;51.098;13.716;2023-02-24T07:34:31;29.20;;;5.13;;
7557;SDS011;3820;51.098;13.716;2023-02-24T07:36:59;20.07;;;5.10;;
7557;SDS011;3820;51.098;13.716;2023-02-24T07:39:32;22.60;;;4.37;;
7557;SDS011;3820;51.098;13.716;2023-02-24T07:41:59;22.97;;;5.20;;
7557;SDS011;3820;51.098;13.716;2023-02-24T07:44:25;23.47;;;5.57;;
7557;SDS011;3820;51.098;13.716;2023-02-24T07:46:54;23.93;;;4.80;;
7557;SDS011;3820;51.098;13.716;2023-02-24T07:49:22;22.40;;;4.50;;
7557;SDS011;3820;51.098;13.716;2023-02-24T07:51:55;20.03;;;4.90;;
7557;SDS011;3820;51.098;13.716;2023-02-24T07:54:24;22.50;;;4.60;;
7557;SDS011;3820;51.098;13.716;2023-02-24T07:56:56;22.70;;;5.90;;
7557;SDS011;3820;51.098;13.716;2023-02-24T07:59:25;22.67;;;4.63;;
7557;SDS011;3820;51.098;13.716;2023-02-24T08:01:53;19.60;;;4.77;;
7557;SDS011;3820;51.098;13.716;2023-02-24T08:04:25;26.00;;;4.47;;
7557;SDS011;3820;51.098;13.716;2023-02-24T08:06:53;23.63;;;5.50;;
7557;SDS011;3820;51.098;13.716;2023-02-24T08:09:23;30.03;;;4.80;;
7557;SDS011;3820;51.098;13.716;2023-02-24T08:12:10;24.97;;;5.30;;
7557;SDS011;3820;51.098;13.716;2023-02-24T08:14:47;20.63;;;5.30;;
7557;SDS011;3820;51.098;13.716;2023-02-24T08:17:18;24.30;;;5.43;;
7557;SDS011;3820;51.098;13.716;2023-02-24T08:19:49;23.30;;;5.50;;
7557;SDS011;3820;51.098;13.716;2023-02-24T08:22:26;20.93;;;5.07;;
7557;SDS011;3820;51.098;13.716;2023-02-24T08:25:00;25.93;;;5.00;;
7557;SDS011;3820;51.098;13.716;2023-02-24T08:27:32;23.97;;;5.00;;
7557;SDS011;3820;51.098;13.716;2023-02-24T08:30:04;24.37;;;6.47;;
7557;SDS011;3820;51.098;13.716;2023-02-24T08:32:33;20.97;;;5.50;;
7557;SDS011;3820;51.098;13.716;2023-02-24T08:35:12;28.10;;;5.50;;
7557;SDS011;3820;51.098;13.716;2023-02-24T08:37:42;30.27;;;5.43;;
7557;SDS011;3820;51.098;13.716;2023-02-24T08:43:02;22.87;;;5.90;;
7557;SDS011;3820;51.098;13.716;2023-02-24T08:45:43;31.27;;;7.13;;
7557;SDS011;3820;51.098;13.716;2023-02-24T08:48:26;30.13;;;6.93;;
7557;SDS011;3820;51.098;13.716;2023-02-24T08:51:05;25.40;;;7.90;;
7557;SDS011;3820;51.098;13.716;2023-02-24T08:53:35;23.37;;;6.70;;
7557;SDS011;3820;51.098;13.716;2023-02-24T08:56:06;17.17;;;4.73;;
7557;SDS011;3820;51.098;13.716;2023-02-24T08:58:43;20.23;;;4.83;;
7557;SDS011;3820;51.098;13.716;2023-02-24T09:01:15;21.60;;;5.40;;
7557;SDS011;3820;51.098;13.716;2023-02-24T09:03:46;27.57;;;4.53;;
7557;SDS011;3820;51.098;13.716;2023-02-24T09:06:15;31.83;;;8.83;;
7557;SDS011;3820;51.098;13.716;2023-02-24T09:08:43;26.23;;;6.07;;
7557;SDS011;3820;51.098;13.716;2023-02-24T09:11:12;18.00;;;4.00;;
7557;SDS011;3820;51.098;13.716;2023-02-24T09:13:41;15.10;;;3.93;;
7557;SDS011;3820;51.098;13.716;2023-02-24T09:16:17;27.37;;;5.03;;
7557;SDS011;3820;51.098;13.716;2023-02-24T09:18:45;19.97;;;3.70;;
7557;SDS011;3820;51.098;13.716;2023-02-24T09:21:31;21.80;;;4.13;;
7557;SDS011;3820;51.098;13.716;2023-02-24T09:24:13;17.00;;;4.70;;
7557;SDS011;3820;51.098;13.716;2023-02-24T09:26:42;21.63;;;4.40;;
7557;SDS011;3820;51.098;13.716;2023-02-24T09:29:09;22.43;;;4.90;;
7557;SDS011;3820;51.098;13.716;2023-02-24T09:31:55;20.70;;;4.43;;
7557;SDS011;3820;51.098;13.716;2023-02-24T09:34:33;17.67;;;4.50;;
7557;SDS011;3820;51.098;13.716;2023-02-24T09:37:02;22.03;;;5.00;;
7557;SDS011;3820;51.098;13.716;2023-02-24T09:39:34;22.63;;;4.20;;
7557;SDS011;3820;51.098;13.716;2023-02-24T09:42:20;19.97;;;4.53;;
7557;SDS011;3820;51.098;13.716;2023-02-24T09:44:49;23.73;;;5.43;;
7557;SDS011;3820;51.098;13.716;2023-02-24T09:52:39;19.97;;;4.97;;
7557;SDS011;3820;51.098;13.716;2023-02-24T09:55:16;26.43;;;5.73;;
7557;SDS011;3820;51.098;13.716;2023-02-24T09:57:51;22.60;;;6.73;;
7557;SDS011;3820;51.098;13.716;2023-02-24T10:03:39;28.60;;;9.97;;
7557;SDS011;3820;51.098;13.716;2023-02-24T10:08:47;19.20;;;7.00;;
7557;SDS011;3820;51.098;13.716;2023-02-24T10:11:43;21.80;;;5.20;;
7557;SDS011;3820;51.098;13.716;2023-02-24T10:17:21;13.67;;;4.40;;
7557;SDS011;3820;51.098;13.716;2023-02-24T10:19:54;13.67;;;4.33;;
7557;SDS011;3820;51.098;13.716;2023-02-24T10:25:10;19.87;;;4.93;;
7557;SDS011;3820;51.098;13.716;2023-02-24T10:27:59;18.07;;;5.03;;
7557;SDS011;3820;51.098;13.716;2023-02-24T10:30:52;13.40;;;4.50;;
7557;SDS011;3820;51.098;13.716;2023-02-24T10:33:36;13.67;;;4.50;;
7557;SDS011;3820;51.098;13.716;2023-02-24T10:36:11;12.60;;;4.90;;
7557;SDS011;3820;51.098;13.716;2023-02-24T10:38:44;19.67;;;4.93;;
7557;SDS011;3820;51.098;13.716;2023-02-24T10:41:12;16.83;;;5.63;;
7557;SDS011;3820;51.098;13.716;2023-02-24T10:43:40;18.00;;;5.83;;
7557;SDS011;3820;51.098;13.716;2023-02-24T10:46:29;17.23;;;5.90;;
7557;SDS011;3820;51.098;13.716;2023-02-24T10:49:08;16.93;;;5.27;;
7557;SDS011;3820;51.098;13.716;2023-02-24T10:51:38;17.00;;;5.27;;
7557;SDS011;3820;51.098;13.716;2023-02-24T10:54:18;12.90;;;4.63;;
7557;SDS011;3820;51.098;13.716;2023-02-24T10:57:07;13.73;;;5.53;;
7557;SDS011;3820;51.098;13.716;2023-02-24T11:00:13;18.83;;;6.27;;
7557;SDS011;3820;51.098;13.716;2023-02-24T11:02:56;15.10;;;6.03;;
7557;SDS011;3820;51.098;13.716;2023-02-24T11:05:34;15.87;;;6.03;;
7557;SDS011;3820;51.098;13.716;2023-02-24T11:08:10;17.63;;;4.93;;
7557;SDS011;3820;51.098;13.716;2023-02-24T11:10:41;19.37;;;6.50;;
7557;SDS011;3820;51.098;13.716;2023-02-24T11:13:18;17.27;;;6.20;;
7557;SDS011;3820;51.098;13.716;2023-02-24T11:16:06;14.83;;;6.53;;
7557;SDS011;3820;51.098;13.716;2023-02-24T11:18:52;17.40;;;7.80;;
7557;SDS011;3820;51.098;13.716;2023-02-24T11:21:21;14.97;;;7.87;;
7557;SDS011;3820;51.098;13.716;2023-02-24T11:23:53;14.67;;;9.07;;
7557;SDS011;3820;51.098;13.716;2023-02-24T11:26:23;17.93;;;8.73;;
7557;SDS011;3820;51.098;13.716;2023-02-24T11:29:15;14.93;;;8.50;;
7557;SDS011;3820;51.098;13.716;2023-02-24T11:31:58;15.23;;;8.43;;
7557;SDS011;3820;51.098;13.716;2023-02-24T11:37:26;13.73;;;8.30;;
7557;SDS011;3820;51.098;13.716;2023-02-24T11:48:12;14.13;;;7.83;;
7557;SDS011;3820;51.098;13.716;2023-02-24T11:53:40;10.37;;;6.57;;
7557;SDS011;3820;51.098;13.716;2023-02-24T12:01:46;10.77;;;5.93;;
7557;SDS011;3820;51.098;13.716;2023-02-24T12:04:28;11.10;;;5.83;;
7557;SDS011;3820;51.098;13.716;2023-02-24T12:07:04;10.37;;;5.90;;
7557;SDS011;3820;51.098;13.716;2023-02-24T12:09:44;11.30;;;6.20;;
7557;SDS011;3820;51.098;13.716;2023-02-24T12:12:16;12.47;;;6.53;;
7557;SDS011;3820;51.098;13.716;2023-02-24T12:14:48;11.10;;;5.83;;
7557;SDS011;3820;51.098;13.716;2023-02-24T12:17:22;14.10;;;7.40;;
7557;SDS011;3820;51.098;13.716;2023-02-24T12:20:03;11.43;;;6.93;;
7557;SDS011;3820;51.098;13.716;2023-02-24T12:22:53;14.13;;;7.37;;
7557;SDS011;3820;51.098;13.716;2023-02-24T12:25:29;14.03;;;7.40;;
7557;SDS011;3820;51.098;13.716;2023-02-24T12:28:07;15.90;;;8.87;;
7557;SDS011;3820;51.098;13.716;2023-02-24T12:30:51;17.03;;;10.03;;
7557;SDS011;3820;51.098;13.716;2023-02-24T12:33:35;13.07;;;8.80;;
7557;SDS011;3820;51.098;13.716;2023-02-24T12:36:19;14.13;;;8.63;;
7557;SDS011;3820;51.098;13.716;2023-02-24T12:41:43;12.67;;;8.20;;
7557;SDS011;3820;51.098;13.716;2023-02-24T12:44:40;16.10;;;8.63;;
7557;SDS011;3820;51.098;13.716;2023-02-24T12:47:14;17.77;;;8.47;;
7557;SDS011;3820;51.098;13.716;2023-02-24T12:49:53;18.40;;;8.63;;
7557;SDS011;3820;51.098;13.716;2023-02-24T12:55:55;15.77;;;8.17;;
7557;SDS011;3820;51.098;13.716;2023-02-24T12:58:32;12.33;;;7.57;;
7557;SDS011;3820;51.098;13.716;2023-02-24T13:11:32;15.10;;;8.90;;
7557;SDS011;3820;51.098;13.716;2023-02-24T13:16:46;13.50;;;8.27;;
7557;SDS011;3820;51.098;13.716;2023-02-24T13:19:18;14.40;;;8.80;;
7557;SDS011;3820;51.098;13.716;2023-02-24T13:22:47;17.50;;;9.60;;
7557;SDS011;3820;51.098;13.716;2023-02-24T13:27:35;13.83;;;8.80;;
7557;SDS011;3820;51.098;13.716;2023-02-24T13:32:40;13.77;;;8.90;;
7557;SDS011;3820;51.098;13.716;2023-02-24T13:37:39;14.97;;;9.20;;
7557;SDS011;3820;51.098;13.716;2023-02-24T13:43:02;16.43;;;9.33;;
7557;SDS011;3820;51.098;13.716;2023-02-24T13:45:30;18.03;;;9.43;;
7557;SDS011;3820;51.098;13.716;2023-02-24T14:02:21;17.63;;;8.97;;
7557;SDS011;3820;51.098;13.716;2023-02-24T14:04:56;17.10;;;9.77;;
7557;SDS011;3820;51.098;13.716;2023-02-24T14:07:24;14.63;;;9.13;;
7557;SDS011;3820;51.098;13.716;2023-02-24T14:10:03;20.03;;;10.63;;
7557;SDS011;3820;51.098;13.716;2023-02-24T14:12:33;19.77;;;10.77;;
7557;SDS011;3820;51.098;13.716;2023-02-24T14:15:00;23.43;;;10.77;;
7557;SDS011;3820;51.098;13.716;2023-02-24T14:23:13;22.03;;;11.97;;
7557;SDS011;3820;51.098;13.716;2023-02-24T14:25:33;24.67;;;13.37;;
7557;SDS011;3820;51.098;13.716;2023-02-24T14:28:01;21.57;;;13.13;;
7557;SDS011;3820;51.098;13.716;2023-02-24T14:30:35;18.67;;;12.63;;
7557;SDS011;3820;51.098;13.716;2023-02-24T14:33:04;26.17;;;13.13;;
7557;SDS011;3820;51.098;13.716;2023-02-24T14:35:44;20.73;;;11.27;;
7557;SDS011;3820;51.098;13.716;2023-02-24T14:40:57;24.87;;;12.37;;
7557;SDS011;3820;51.098;13.716;2023-02-24T14:43:24;19.53;;;11.20;;
7557;SDS011;3820;51.098;13.716;2023-02-24T14:45:52;21.43;;;11.57;;
7557;SDS011;3820;51.098;13.716;2023-02-24T14:48:29;19.90;;;12.03;;
7557;SDS011;3820;51.098;13.716;2023-02-24T14:51:04;19.57;;;10.80;;
7557;SDS011;3820;51.098;13.716;2023-02-24T14:53:35;21.47;;;11.73;;
7557;SDS011;3820;51.098;13.716;2023-02-24T14:56:04;20.40;;;10.63;;
7557;SDS011;3820;51.098;13.716;2023-02-24T15:03:50;17.87;;;9.93;;
7557;SDS011;3820;51.098;13.716;2023-02-24T15:06:29;16.40;;;9.47;;
7557;SDS011;3820;51.098;13.716;2023-02-24T15:08:58;16.27;;;8.97;;
7557;SDS011;3820;51.098;13.716;2023-02-24T15:11:28;16.03;;;8.30;;
7557;SDS011;3820;51.098;13.716;2023-02-24T15:13:57;18.57;;;8.40;;
7557;SDS011;3820;51.098;13.716;2023-02-24T15:19:01;16.83;;;8.40;;
7557;SDS011;3820;51.098;13.716;2023-02-24T15:21:29;14.63;;;8.20;;
7557;SDS011;3820;51.098;13.716;2023-02-24T15:23:57;15.67;;;7.57;;
7557;SDS011;3820;51.098;13.716;2023-02-24T15:26:29;15.63;;;8.07;;
7557;SDS011;3820;51.098;13.716;2023-02-24T15:28:59;11.80;;;7.30;;
7557;SDS011;3820;51.098;13.716;2023-02-24T15:31:27;16.17;;;7.43;;
7557;SDS011;3820;51.098;13.716;2023-02-24T15:33:55;17.17;;;7.97;;
7557;SDS011;3820;51.098;13.716;2023-02-24T15:36:34;16.50;;;7.80;;
7557;SDS011;3820;51.098;13.716;2023-02-24T15:39:05;13.73;;;7.80;;
7557;SDS011;3820;51.098;13.716;2023-02-24T15:41:39;15.37;;;8.00;;
7557;SDS011;3820;51.098;13.716;2023-02-24T15:44:27;11.97;;;7.93;;
7557;SDS011;3820;51.098;13.716;2023-02-24T15:46:59;14.90;;;7.97;;
7557;SDS011;3820;51.098;13.716;2023-02-24T15:49:27;14.83;;;8.00;;
7557;SDS011;3820;51.098;13.716;2023-02-24T15:51:54;11.73;;;7.70;;
7557;SDS011;3820;51.098;13.716;2023-02-24T15:54:27;17.43;;;8.20;;
7557;SDS011;3820;51.098;13.716;2023-02-24T15:56:58;11.33;;;6.90;;
7557;SDS011;3820;51.098;13.716;2023-02-24T15:59:26;10.37;;;6.17;;
7557;SDS011;3820;51.098;13.716;2023-02-24T16:01:53;10.87;;;5.63;;
7557;SDS011;3820;51.098;13.716;2023-02-24T16:04:20;10.23;;;5.40;;
7557;SDS011;3820;51.098;13.716;2023-02-24T16:06:49;10.60;;;6.87;;
7557;SDS011;3820;51.098;13.716;2023-02-24T16:09:37;11.13;;;6.37;;
7557;SDS011;3820;51.098;13.716;2023-02-24T16:12:06;10.90;;;6.60;;
7557;SDS011;3820;51.098;13.716;2023-02-24T16:14:41;11.00;;;6.90;;
7557;SDS011;3820;51.098;13.716;2023-02-24T16:17:16;17.30;;;8.90;;
7557;SDS011;3820;51.098;13.716;2023-02-24T16:20:27;15.70;;;9.00;;
7557;SDS011;3820;51.098;13.716;2023-02-24T16:22:53;26.53;;;12.03;;
7557;SDS011;3820;51.098;13.716;2023-02-24T16:25:21;65.77;;;26.40;;
7557;SDS011;3820;51.098;13.716;2023-02-24T16:27:48;17.57;;;9.40;;
7557;SDS011;3820;51.098;13.716;2023-02-24T16:30:16;14.27;;;8.67;;
7557;SDS011;3820;51.098;13.716;2023-02-24T16:32:47;16.40;;;9.33;;
7557;SDS011;3820;51.098;13.716;2023-02-24T16:35:14;21.37;;;11.50;;
7557;SDS011;3820;51.098;13.716;2023-02-24T16:37:41;22.20;;;14.00;;
7557;SDS011;3820;51.098;13.716;2023-02-24T16:40:27;19.60;;;11.73;;
7557;SDS011;3820;51.098;13.716;2023-02-24T16:42:56;21.57;;;11.10;;
7557;SDS011;3820;51.098;13.716;2023-02-24T16:45:26;19.87;;;12.10;;
7557;SDS011;3820;51.098;13.716;2023-02-24T16:47:54;18.20;;;11.33;;
7557;SDS011;3820;51.098;13.716;2023-02-24T16:50:25;22.40;;;13.30;;
7557;SDS011;3820;51.098;13.716;2023-02-24T16:52:58;18.97;;;12.67;;
7557;SDS011;3820;51.098;13.716;2023-02-24T16:55:25;19.10;;;12.43;;
7557;SDS011;3820;51.098;13.716;2023-02-24T16:57:52;22.87;;;12.33;;
7557;SDS011;3820;51.098;13.716;2023-02-24T17:00:18;20.10;;;12.27;;
7557;SDS011;3820;51.098;13.716;2023-02-24T17:02:49;17.80;;;12.07;;
7557;SDS011;3820;51.098;13.716;2023-02-24T17:05:21;21.33;;;11.87;;
7557;SDS011;3820;51.098;13.716;2023-02-24T17:07:50;18.63;;;11.73;;
7557;SDS011;3820;51.098;13.716;2023-02-24T17:10:18;19.30;;;11.67;;
7557;SDS011;3820;51.098;13.716;2023-02-24T17:12:45;17.33;;;11.77;;
7557;SDS011;3820;51.098;13.716;2023-02-24T17:15:14;18.00;;;11.57;;
7557;SDS011;3820;51.098;13.716;2023-02-24T17:17:42;17.53;;;11.50;;
7557;SDS011;3820;51.098;13.716;2023-02-24T17:20:12;18.63;;;11.67;;
7557;SDS011;3820;51.098;13.716;2023-02-24T17:22:41;19.77;;;12.20;;
7557;SDS011;3820;51.098;13.716;2023-02-24T17:25:11;18.93;;;12.47;;
7557;SDS011;3820;51.098;13.716;2023-02-24T17:27:40;17.23;;;11.33;;
7557;SDS011;3820;51.098;13.716;2023-02-24T17:30:09;17.20;;;10.70;;
7557;SDS011;3820;51.098;13.716;2023-02-24T17:32:38;17.10;;;9.83;;
7557;SDS011;3820;51.098;13.716;2023-02-24T17:35:05;18.47;;;10.00;;
7557;SDS011;3820;51.098;13.716;2023-02-24T17:37:32;15.33;;;10.10;;
7557;SDS011;3820;51.098;13.716;2023-02-24T17:39:58;20.33;;;10.00;;